sensor_id;sensor_type;location;lat;lon;timestamp;temperature;humidity
1536;DHT22;761;50.074;8.228;2022-11-15T00:00:13;8.00;1.00
1536;DHT22;761;50.074;8.228;2022-11-15T00:03:01;8.00;1.00
1536;DHT22;761;50.074;8.228;2022-11-15T00:05:48;8.00;1.00
1536;DHT22;761;50.074;8.228;2022-11-15T00:08:35;8.00;1.00
1536;DHT22;761;50.074;8.228;2022-11-15T00:11:22;8.00;1.00
1536;DHT22;761;50.074;8.228;2022-11-15T00:14:10;8.10;1.00
1536;DHT22;761;50.074;8.228;2022-11-15T00:16:57;8.10;1.00
1536;DHT22;761;50.074;8.228;2022-11-15T00:19:44;8.20;1.00
1536;DHT22;761;50.074;8.228;2022-11-15T00:22:32;8.20;1.00
1536;DHT22;761;50.074;8.228;2022-11-15T00:25:19;8.20;1.00
1536;DHT22;761;50.074;8.228;2022-11-15T00:28:06;8.20;1.00
1536;DHT22;761;50.074;8.228;2022-11-15T00:30:59;8.20;1.00
1536;DHT22;761;50.074;8.228;2022-11-15T00:33:46;8.20;1.00
1536;DHT22;761;50.074;8.228;2022-11-15T00:36:33;8.20;1.00
1536;DHT22;761;50.074;8.228;2022-11-15T00:39:19;8.20;1.00
1536;DHT22;761;50.074;8.228;2022-11-15T00:42:06;8.20;1.00
1536;DHT22;761;50.074;8.228;2022-11-15T00:44:52;8.20;1.00
1536;DHT22;761;50.074;8.228;2022-11-15T00:47:40;8.20;1.00
1536;DHT22;761;50.074;8.228;2022-11-15T00:50:29;8.30;1.00
1536;DHT22;761;50.074;8.228;2022-11-15T00:53:16;8.30;1.00
1536;DHT22;761;50.074;8.228;2022-11-15T00:56:03;8.30;1.00
1536;DHT22;761;50.074;8.228;2022-11-15T00:58:50;8.30;1.00
1536;DHT22;761;50.074;8.228;2022-11-15T01:01:37;8.30;1.00
1536;DHT22;761;50.074;8.228;2022-11-15T01:04:25;8.40;1.00
1536;DHT22;761;50.074;8.228;2022-11-15T01:07:12;8.40;1.00
1536;DHT22;761;50.074;8.228;2022-11-15T01:09:59;8.40;1.00
1536;DHT22;761;50.074;8.228;2022-11-15T01:12:45;8.40;1.00
1536;DHT22;761;50.074;8.228;2022-11-15T01:15:32;8.50;1.00
1536;DHT22;761;50.074;8.228;2022-11-15T01:18:18;8.50;1.00
1536;DHT22;761;50.074;8.228;2022-11-15T01:21:08;8.50;1.00
1536;DHT22;761;50.074;8.228;2022-11-15T01:23:56;8.60;1.00
1536;DHT22;761;50.074;8.228;2022-11-15T01:26:43;8.70;1.00
1536;DHT22;761;50.074;8.228;2022-11-15T01:29:30;8.60;1.00
1536;DHT22;761;50.074;8.228;2022-11-15T01:32:17;8.50;1.00
1536;DHT22;761;50.074;8.228;2022-11-15T01:35:04;8.60;1.00
1536;DHT22;761;50.074;8.228;2022-11-15T01:37:52;8.40;1.00
1536;DHT22;761;50.074;8.228;2022-11-15T01:40:39;8.60;1.00
1536;DHT22;761;50.074;8.228;2022-11-15T01:43:28;8.50;1.00
1536;DHT22;761;50.074;8.228;2022-11-15T01:46:25;8.60;1.00
1536;DHT22;761;50.074;8.228;2022-11-15T01:49:16;8.50;1.00
1536;DHT22;761;50.074;8.228;2022-11-15T01:52:06;8.60;1.00
1536;DHT22;761;50.074;8.228;2022-11-15T01:54:58;8.70;1.00
1536;DHT22;761;50.074;8.228;2022-11-15T01:57:50;8.80;1.00
1536;DHT22;761;50.074;8.228;2022-11-15T02:00:38;8.80;1.00
1536;DHT22;761;50.074;8.228;2022-11-15T02:03:31;8.80;1.00
1536;DHT22;761;50.074;8.228;2022-11-15T02:06:20;8.70;1.00
1536;DHT22;761;50.074;8.228;2022-11-15T02:09:08;8.70;1.00
1536;DHT22;761;50.074;8.228;2022-11-15T02:11:56;8.70;1.00
1536;DHT22;761;50.074;8.228;2022-11-15T02:14:46;8.70;1.00
1536;DHT22;761;50.074;8.228;2022-11-15T02:17:50;8.70;1.00
1536;DHT22;761;50.074;8.228;2022-11-15T02:20:48;8.60;1.00
1536;DHT22;761;50.074;8.228;2022-11-15T02:24:10;8.70;1.00
1536;DHT22;761;50.074;8.228;2022-11-15T02:27:31;8.80;1.00
1536;DHT22;761;50.074;8.228;2022-11-15T02:30:27;8.80;1.00
1536;DHT22;761;50.074;8.228;2022-11-15T02:33:27;8.90;1.00
1536;DHT22;761;50.074;8.228;2022-11-15T02:36:26;8.90;1.00
1536;DHT22;761;50.074;8.228;2022-11-15T02:39:21;8.80;1.00
1536;DHT22;761;50.074;8.228;2022-11-15T02:42:14;9.00;1.00
1536;DHT22;761;50.074;8.228;2022-11-15T02:45:20;9.20;1.00
1536;DHT22;761;50.074;8.228;2022-11-15T02:48:11;9.30;1.00
1536;DHT22;761;50.074;8.228;2022-11-15T02:50:59;9.60;1.00
1536;DHT22;761;50.074;8.228;2022-11-15T02:53:46;9.60;1.00
1536;DHT22;761;50.074;8.228;2022-11-15T02:56:33;9.60;1.00
1536;DHT22;761;50.074;8.228;2022-11-15T02:59:33;9.40;1.00
1536;DHT22;761;50.074;8.228;2022-11-15T03:02:32;9.30;1.00
1536;DHT22;761;50.074;8.228;2022-11-15T03:05:28;9.60;1.00
1536;DHT22;761;50.074;8.228;2022-11-15T03:08:22;9.60;1.00
1536;DHT22;761;50.074;8.228;2022-11-15T03:11:15;9.60;1.00
1536;DHT22;761;50.074;8.228;2022-11-15T03:14:11;9.40;1.00
1536;DHT22;761;50.074;8.228;2022-11-15T03:17:05;9.30;1.00
1536;DHT22;761;50.074;8.228;2022-11-15T03:19:57;9.40;1.00
1536;DHT22;761;50.074;8.228;2022-11-15T03:22:47;9.30;1.00
1536;DHT22;761;50.074;8.228;2022-11-15T03:25:40;9.10;1.00
1536;DHT22;761;50.074;8.228;2022-11-15T03:28:34;9.00;1.00
1536;DHT22;761;50.074;8.228;2022-11-15T03:31:25;9.00;1.00
1536;DHT22;761;50.074;8.228;2022-11-15T03:34:38;9.00;1.00
1536;DHT22;761;50.074;8.228;2022-11-15T03:37:30;8.90;1.00
1536;DHT22;761;50.074;8.228;2022-11-15T03:40:24;8.90;1.00
1536;DHT22;761;50.074;8.228;2022-11-15T03:43:16;9.00;1.00
1536;DHT22;761;50.074;8.228;2022-11-15T03:46:07;9.00;1.00
1536;DHT22;761;50.074;8.228;2022-11-15T03:49:02;9.00;1.00
1536;DHT22;761;50.074;8.228;2022-11-15T03:51:51;9.10;1.00
1536;DHT22;761;50.074;8.228;2022-11-15T03:54:47;9.10;1.00
1536;DHT22;761;50.074;8.228;2022-11-15T03:57:36;9.00;1.00
1536;DHT22;761;50.074;8.228;2022-11-15T04:00:23;8.90;1.00
1536;DHT22;761;50.074;8.228;2022-11-15T04:03:10;9.00;1.00
1536;DHT22;761;50.074;8.228;2022-11-15T04:05:56;9.10;1.00
1536;DHT22;761;50.074;8.228;2022-11-15T04:08:43;9.10;1.00
1536;DHT22;761;50.074;8.228;2022-11-15T04:11:30;9.10;1.00
1536;DHT22;761;50.074;8.228;2022-11-15T04:14:18;9.20;1.00
1536;DHT22;761;50.074;8.228;2022-11-15T04:17:05;9.20;1.00
1536;DHT22;761;50.074;8.228;2022-11-15T04:19:51;9.20;1.00
1536;DHT22;761;50.074;8.228;2022-11-15T04:22:57;9.10;1.00
1536;DHT22;761;50.074;8.228;2022-11-15T04:26:05;9.10;1.00
1536;DHT22;761;50.074;8.228;2022-11-15T04:28:52;9.10;1.00
1536;DHT22;761;50.074;8.228;2022-11-15T04:31:58;9.20;1.00
1536;DHT22;761;50.074;8.228;2022-11-15T04:34:46;9.20;1.00
1536;DHT22;761;50.074;8.228;2022-11-15T04:37:32;9.20;1.00
1536;DHT22;761;50.074;8.228;2022-11-15T04:40:19;9.20;1.00
1536;DHT22;761;50.074;8.228;2022-11-15T04:43:09;9.20;1.00
1536;DHT22;761;50.074;8.228;2022-11-15T04:45:56;9.10;1.00
1536;DHT22;761;50.074;8.228;2022-11-15T04:48:44;9.00;1.00
1536;DHT22;761;50.074;8.228;2022-11-15T04:51:30;9.10;1.00
1536;DHT22;761;50.074;8.228;2022-11-15T04:54:17;9.20;1.00
1536;DHT22;761;50.074;8.228;2022-11-15T04:57:04;9.30;1.00
1536;DHT22;761;50.074;8.228;2022-11-15T04:59:51;9.20;1.00
1536;DHT22;761;50.074;8.228;2022-11-15T05:02:38;9.30;1.00
1536;DHT22;761;50.074;8.228;2022-11-15T05:05:43;9.30;1.00
1536;DHT22;761;50.074;8.228;2022-11-15T05:08:33;9.30;1.00
1536;DHT22;761;50.074;8.228;2022-11-15T05:11:21;9.40;1.00
1536;DHT22;761;50.074;8.228;2022-11-15T05:14:08;9.50;1.00
1536;DHT22;761;50.074;8.228;2022-11-15T05:16:54;9.50;1.00
1536;DHT22;761;50.074;8.228;2022-11-15T05:19:41;9.50;1.00
1536;DHT22;761;50.074;8.228;2022-11-15T05:22:29;9.50;1.00
1536;DHT22;761;50.074;8.228;2022-11-15T05:25:17;9.50;1.00
1536;DHT22;761;50.074;8.228;2022-11-15T05:28:04;9.40;1.00
1536;DHT22;761;50.074;8.228;2022-11-15T05:30:51;9.40;1.00
1536;DHT22;761;50.074;8.228;2022-11-15T05:33:38;9.40;1.00
1536;DHT22;761;50.074;8.228;2022-11-15T05:36:31;9.40;1.00
1536;DHT22;761;50.074;8.228;2022-11-15T05:39:19;9.50;1.00
1536;DHT22;761;50.074;8.228;2022-11-15T05:42:10;9.40;1.00
1536;DHT22;761;50.074;8.228;2022-11-15T05:45:03;9.30;1.00
1536;DHT22;761;50.074;8.228;2022-11-15T05:47:51;9.50;1.00
1536;DHT22;761;50.074;8.228;2022-11-15T05:50:46;9.60;1.00
1536;DHT22;761;50.074;8.228;2022-11-15T05:53:35;9.50;1.00
1536;DHT22;761;50.074;8.228;2022-11-15T05:56:24;9.60;1.00
1536;DHT22;761;50.074;8.228;2022-11-15T05:59:12;9.50;1.00
1536;DHT22;761;50.074;8.228;2022-11-15T06:01:59;9.50;1.00
1536;DHT22;761;50.074;8.228;2022-11-15T06:04:46;9.60;1.00
1536;DHT22;761;50.074;8.228;2022-11-15T06:07:33;9.60;1.00
1536;DHT22;761;50.074;8.228;2022-11-15T06:10:20;9.60;1.00
1536;DHT22;761;50.074;8.228;2022-11-15T06:13:08;9.70;1.00
1536;DHT22;761;50.074;8.228;2022-11-15T06:15:55;9.70;1.00
1536;DHT22;761;50.074;8.228;2022-11-15T06:18:44;9.80;1.00
1536;DHT22;761;50.074;8.228;2022-11-15T06:21:31;9.90;1.00
1536;DHT22;761;50.074;8.228;2022-11-15T06:24:18;9.70;1.00
1536;DHT22;761;50.074;8.228;2022-11-15T06:27:05;9.80;1.00
1536;DHT22;761;50.074;8.228;2022-11-15T06:29:54;10.00;1.00
1536;DHT22;761;50.074;8.228;2022-11-15T06:32:40;10.00;1.00
1536;DHT22;761;50.074;8.228;2022-11-15T06:35:28;9.70;1.00
1536;DHT22;761;50.074;8.228;2022-11-15T06:38:18;9.50;1.00
1536;DHT22;761;50.074;8.228;2022-11-15T06:41:09;9.30;1.00
1536;DHT22;761;50.074;8.228;2022-11-15T06:43:57;9.20;1.00
1536;DHT22;761;50.074;8.228;2022-11-15T06:46:46;9.20;1.00
1536;DHT22;761;50.074;8.228;2022-11-15T06:52:21;9.20;1.00
1536;DHT22;761;50.074;8.228;2022-11-15T06:55:09;9.20;1.00
1536;DHT22;761;50.074;8.228;2022-11-15T07:00:44;9.20;1.00
1536;DHT22;761;50.074;8.228;2022-11-15T07:03:34;9.20;1.00
1536;DHT22;761;50.074;8.228;2022-11-15T07:06:27;9.30;1.00
1536;DHT22;761;50.074;8.228;2022-11-15T07:09:17;9.40;1.00
1536;DHT22;761;50.074;8.228;2022-11-15T07:12:06;9.40;1.00
1536;DHT22;761;50.074;8.228;2022-11-15T07:14:54;9.50;1.00
1536;DHT22;761;50.074;8.228;2022-11-15T07:17:41;9.60;1.00
1536;DHT22;761;50.074;8.228;2022-11-15T07:20:29;9.60;1.00
1536;DHT22;761;50.074;8.228;2022-11-15T07:23:17;9.70;1.00
1536;DHT22;761;50.074;8.228;2022-11-15T07:26:05;9.60;1.00
1536;DHT22;761;50.074;8.228;2022-11-15T07:28:52;9.60;1.00
1536;DHT22;761;50.074;8.228;2022-11-15T07:31:40;9.40;1.00
1536;DHT22;761;50.074;8.228;2022-11-15T07:34:27;9.50;1.00
1536;DHT22;761;50.074;8.228;2022-11-15T07:40:05;9.60;1.00
1536;DHT22;761;50.074;8.228;2022-11-15T07:42:59;9.60;1.00
1536;DHT22;761;50.074;8.228;2022-11-15T07:48:42;9.80;1.00
1536;DHT22;761;50.074;8.228;2022-11-15T07:51:30;9.80;1.00
1536;DHT22;761;50.074;8.228;2022-11-15T07:57:39;10.00;1.00
1536;DHT22;761;50.074;8.228;2022-11-15T08:00:26;10.00;1.00
1536;DHT22;761;50.074;8.228;2022-11-15T08:03:15;10.00;1.00
1536;DHT22;761;50.074;8.228;2022-11-15T08:06:17;10.00;1.00
1536;DHT22;761;50.074;8.228;2022-11-15T08:09:06;10.00;1.00
1536;DHT22;761;50.074;8.228;2022-11-15T08:11:59;10.00;1.00
1536;DHT22;761;50.074;8.228;2022-11-15T08:17:53;10.40;1.00
1536;DHT22;761;50.074;8.228;2022-11-15T08:20:41;10.40;1.00
1536;DHT22;761;50.074;8.228;2022-11-15T08:26:16;10.70;1.00
1536;DHT22;761;50.074;8.228;2022-11-15T08:29:30;10.60;1.00
1536;DHT22;761;50.074;8.228;2022-11-15T08:41:02;10.40;1.00
1536;DHT22;761;50.074;8.228;2022-11-15T08:43:55;10.40;1.00
1536;DHT22;761;50.074;8.228;2022-11-15T08:49:35;10.30;1.00
1536;DHT22;761;50.074;8.228;2022-11-15T08:52:22;10.30;1.00
1536;DHT22;761;50.074;8.228;2022-11-15T08:55:10;10.30;1.00
1536;DHT22;761;50.074;8.228;2022-11-15T08:57:58;10.30;1.00
1536;DHT22;761;50.074;8.228;2022-11-15T09:00:46;10.30;1.00
1536;DHT22;761;50.074;8.228;2022-11-15T09:03:35;10.30;1.00
1536;DHT22;761;50.074;8.228;2022-11-15T09:06:22;10.40;1.00
1536;DHT22;761;50.074;8.228;2022-11-15T09:09:09;10.40;1.00
1536;DHT22;761;50.074;8.228;2022-11-15T09:11:56;10.50;1.00
1536;DHT22;761;50.074;8.228;2022-11-15T09:14:47;10.70;1.00
1536;DHT22;761;50.074;8.228;2022-11-15T09:17:34;10.80;1.00
1536;DHT22;761;50.074;8.228;2022-11-15T09:20:23;11.00;1.00
1536;DHT22;761;50.074;8.228;2022-11-15T09:23:13;11.10;1.00
1536;DHT22;761;50.074;8.228;2022-11-15T09:26:02;11.10;1.00
1536;DHT22;761;50.074;8.228;2022-11-15T09:31:38;11.30;1.00
1536;DHT22;761;50.074;8.228;2022-11-15T09:34:27;11.30;1.00
1536;DHT22;761;50.074;8.228;2022-11-15T09:37:17;11.50;1.00
1536;DHT22;761;50.074;8.228;2022-11-15T09:40:04;11.50;1.00
1536;DHT22;761;50.074;8.228;2022-11-15T09:43:09;11.60;1.00
1536;DHT22;761;50.074;8.228;2022-11-15T09:46:06;11.60;1.00
1536;DHT22;761;50.074;8.228;2022-11-15T09:48:56;11.70;1.00
1536;DHT22;761;50.074;8.228;2022-11-15T09:51:59;11.70;1.00
1536;DHT22;761;50.074;8.228;2022-11-15T09:54:31;11.70;1.00
1536;DHT22;761;50.074;8.228;2022-11-15T09:57:31;11.70;1.00
1536;DHT22;761;50.074;8.228;2022-11-15T10:00:07;11.70;1.00
1536;DHT22;761;50.074;8.228;2022-11-15T10:05:44;11.80;1.00
1536;DHT22;761;50.074;8.228;2022-11-15T10:08:46;11.80;1.00
1536;DHT22;761;50.074;8.228;2022-11-15T10:11:23;11.80;1.00
1536;DHT22;761;50.074;8.228;2022-11-15T10:14:13;11.80;1.00
1536;DHT22;761;50.074;8.228;2022-11-15T10:17:13;11.80;1.00
1536;DHT22;761;50.074;8.228;2022-11-15T10:19:53;11.80;1.00
1536;DHT22;761;50.074;8.228;2022-11-15T10:22:37;11.70;1.00
1536;DHT22;761;50.074;8.228;2022-11-15T10:25:20;11.80;1.00
1536;DHT22;761;50.074;8.228;2022-11-15T10:27:59;11.90;1.00
1536;DHT22;761;50.074;8.228;2022-11-15T10:30:34;11.90;1.00
1536;DHT22;761;50.074;8.228;2022-11-15T10:33:23;11.90;1.00
1536;DHT22;761;50.074;8.228;2022-11-15T10:36:18;11.90;1.00
1536;DHT22;761;50.074;8.228;2022-11-15T10:38:53;12.00;1.00
1536;DHT22;761;50.074;8.228;2022-11-15T10:41:30;12.00;1.00
1536;DHT22;761;50.074;8.228;2022-11-15T10:44:12;12.00;1.00
1536;DHT22;761;50.074;8.228;2022-11-15T10:46:46;12.10;1.00
1536;DHT22;761;50.074;8.228;2022-11-15T10:49:20;12.10;1.00
1536;DHT22;761;50.074;8.228;2022-11-15T10:51:53;12.10;1.00
1536;DHT22;761;50.074;8.228;2022-11-15T10:54:23;12.10;1.00
1536;DHT22;761;50.074;8.228;2022-11-15T10:56:55;12.20;1.00
1536;DHT22;761;50.074;8.228;2022-11-15T10:59:28;12.20;1.00
1536;DHT22;761;50.074;8.228;2022-11-15T11:02:30;12.10;1.00
1536;DHT22;761;50.074;8.228;2022-11-15T11:05:00;12.70;1.00
1536;DHT22;761;50.074;8.228;2022-11-15T11:07:31;12.30;1.00
1536;DHT22;761;50.074;8.228;2022-11-15T11:10:02;12.40;1.00
1536;DHT22;761;50.074;8.228;2022-11-15T11:15:25;12.50;1.00
1536;DHT22;761;50.074;8.228;2022-11-15T11:18:02;12.50;1.00
1536;DHT22;761;50.074;8.228;2022-11-15T11:20:39;12.50;1.00
1536;DHT22;761;50.074;8.228;2022-11-15T11:23:38;12.50;1.00
1536;DHT22;761;50.074;8.228;2022-11-15T11:26:25;12.60;1.00
1536;DHT22;761;50.074;8.228;2022-11-15T11:29:04;12.50;1.00
1536;DHT22;761;50.074;8.228;2022-11-15T11:31:43;12.40;1.00
1536;DHT22;761;50.074;8.228;2022-11-15T11:34:19;12.30;1.00
1536;DHT22;761;50.074;8.228;2022-11-15T11:37:02;12.20;1.00
1536;DHT22;761;50.074;8.228;2022-11-15T11:39:36;12.30;1.00
1536;DHT22;761;50.074;8.228;2022-11-15T11:42:16;12.40;1.00
1536;DHT22;761;50.074;8.228;2022-11-15T11:44:56;12.30;1.00
1536;DHT22;761;50.074;8.228;2022-11-15T11:47:39;12.30;1.00
1536;DHT22;761;50.074;8.228;2022-11-15T11:50:13;12.30;1.00
1536;DHT22;761;50.074;8.228;2022-11-15T11:52:54;12.50;1.00
1536;DHT22;761;50.074;8.228;2022-11-15T11:55:33;12.50;1.00
1536;DHT22;761;50.074;8.228;2022-11-15T11:58:11;12.50;1.00
1536;DHT22;761;50.074;8.228;2022-11-15T12:00:49;12.60;1.00
1536;DHT22;761;50.074;8.228;2022-11-15T12:03:26;12.80;1.00
1536;DHT22;761;50.074;8.228;2022-11-15T12:05:59;12.70;1.00
1536;DHT22;761;50.074;8.228;2022-11-15T12:08:40;12.70;1.00
1536;DHT22;761;50.074;8.228;2022-11-15T12:11:21;12.80;1.00
1536;DHT22;761;50.074;8.228;2022-11-15T12:13:56;12.80;1.00
1536;DHT22;761;50.074;8.228;2022-11-15T12:16:31;12.80;1.00
1536;DHT22;761;50.074;8.228;2022-11-15T12:19:03;12.90;1.00
1536;DHT22;761;50.074;8.228;2022-11-15T12:21:39;12.90;1.00
1536;DHT22;761;50.074;8.228;2022-11-15T12:24:19;12.90;1.00
1536;DHT22;761;50.074;8.228;2022-11-15T12:26:52;12.90;1.00
1536;DHT22;761;50.074;8.228;2022-11-15T12:29:29;12.90;1.00
1536;DHT22;761;50.074;8.228;2022-11-15T12:34:40;12.80;1.00
1536;DHT22;761;50.074;8.228;2022-11-15T12:40:28;12.90;1.00
1536;DHT22;761;50.074;8.228;2022-11-15T12:46:22;13.00;1.00
1536;DHT22;761;50.074;8.228;2022-11-15T12:48:56;13.00;1.00
1536;DHT22;761;50.074;8.228;2022-11-15T12:58:24;13.10;1.00
1536;DHT22;761;50.074;8.228;2022-11-15T13:06:09;12.90;1.00
1536;DHT22;761;50.074;8.228;2022-11-15T13:09:02;12.90;1.00
1536;DHT22;761;50.074;8.228;2022-11-15T13:14:46;13.10;1.00
1536;DHT22;761;50.074;8.228;2022-11-15T13:17:25;12.90;1.00
1536;DHT22;761;50.074;8.228;2022-11-15T13:19:58;12.90;1.00
1536;DHT22;761;50.074;8.228;2022-11-15T13:28:22;12.80;1.00
1536;DHT22;761;50.074;8.228;2022-11-15T13:41:31;13.50;1.00
1536;DHT22;761;50.074;8.228;2022-11-15T13:44:18;12.80;1.00
1536;DHT22;761;50.074;8.228;2022-11-15T13:57:17;12.80;1.00
1536;DHT22;761;50.074;8.228;2022-11-15T13:59:53;12.80;1.00
1536;DHT22;761;50.074;8.228;2022-11-15T14:10:27;12.70;1.00
1536;DHT22;761;50.074;8.228;2022-11-15T14:15:30;12.80;1.00
1536;DHT22;761;50.074;8.228;2022-11-15T14:20:31;12.80;1.00
1536;DHT22;761;50.074;8.228;2022-11-15T14:23:02;12.70;1.00
1536;DHT22;761;50.074;8.228;2022-11-15T14:25:33;12.70;1.00
1536;DHT22;761;50.074;8.228;2022-11-15T14:28:28;12.70;1.00
1536;DHT22;761;50.074;8.228;2022-11-15T14:30:59;12.60;1.00
1536;DHT22;761;50.074;8.228;2022-11-15T14:33:34;12.60;1.00
1536;DHT22;761;50.074;8.228;2022-11-15T14:36:11;12.60;1.00
1536;DHT22;761;50.074;8.228;2022-11-15T14:41:36;12.60;1.00
1536;DHT22;761;50.074;8.228;2022-11-15T14:44:09;12.60;1.00
1536;DHT22;761;50.074;8.228;2022-11-15T14:54:22;12.60;1.00
1536;DHT22;761;50.074;8.228;2022-11-15T14:59:19;12.50;1.00
1536;DHT22;761;50.074;8.228;2022-11-15T15:01:49;12.60;1.00
1536;DHT22;761;50.074;8.228;2022-11-15T15:06:48;12.50;1.00
1536;DHT22;761;50.074;8.228;2022-11-15T15:09:18;12.50;1.00
1536;DHT22;761;50.074;8.228;2022-11-15T15:11:49;12.60;1.00
1536;DHT22;761;50.074;8.228;2022-11-15T15:14:20;12.60;1.00
1536;DHT22;761;50.074;8.228;2022-11-15T15:16:49;12.60;1.00
1536;DHT22;761;50.074;8.228;2022-11-15T15:19:18;12.50;1.00
1536;DHT22;761;50.074;8.228;2022-11-15T15:21:48;12.60;1.00
1536;DHT22;761;50.074;8.228;2022-11-15T15:24:17;12.50;1.00
1536;DHT22;761;50.074;8.228;2022-11-15T15:26:45;12.50;1.00
1536;DHT22;761;50.074;8.228;2022-11-15T15:29:14;12.50;1.00
1536;DHT22;761;50.074;8.228;2022-11-15T15:31:44;12.50;1.00
1536;DHT22;761;50.074;8.228;2022-11-15T15:34:18;12.50;1.00
1536;DHT22;761;50.074;8.228;2022-11-15T15:37:06;12.50;1.00
1536;DHT22;761;50.074;8.228;2022-11-15T15:39:35;12.50;1.00
1536;DHT22;761;50.074;8.228;2022-11-15T15:42:04;12.50;1.00
1536;DHT22;761;50.074;8.228;2022-11-15T15:44:34;12.50;1.00
1536;DHT22;761;50.074;8.228;2022-11-15T15:47:09;12.50;1.00
1536;DHT22;761;50.074;8.228;2022-11-15T15:49:42;12.50;1.00
1536;DHT22;761;50.074;8.228;2022-11-15T15:52:16;12.60;1.00
1536;DHT22;761;50.074;8.228;2022-11-15T15:54:45;12.60;1.00
1536;DHT22;761;50.074;8.228;2022-11-15T15:57:14;12.70;1.00
1536;DHT22;761;50.074;8.228;2022-11-15T15:59:43;12.70;1.00
1536;DHT22;761;50.074;8.228;2022-11-15T16:04:40;12.90;1.00
1536;DHT22;761;50.074;8.228;2022-11-15T16:07:17;12.90;1.00
1536;DHT22;761;50.074;8.228;2022-11-15T16:09:48;12.90;1.00
1536;DHT22;761;50.074;8.228;2022-11-15T16:12:31;12.90;1.00
1536;DHT22;761;50.074;8.228;2022-11-15T16:15:01;12.90;1.00
1536;DHT22;761;50.074;8.228;2022-11-15T16:17:47;12.90;1.00
1536;DHT22;761;50.074;8.228;2022-11-15T16:20:29;12.80;1.00
1536;DHT22;761;50.074;8.228;2022-11-15T16:23:00;12.80;1.00
1536;DHT22;761;50.074;8.228;2022-11-15T16:25:37;12.90;1.00
1536;DHT22;761;50.074;8.228;2022-11-15T16:28:16;12.90;1.00
1536;DHT22;761;50.074;8.228;2022-11-15T16:30:58;12.70;1.00
1536;DHT22;761;50.074;8.228;2022-11-15T16:35:57;12.40;1.00
1536;DHT22;761;50.074;8.228;2022-11-15T16:46:06;12.70;1.00
1536;DHT22;761;50.074;8.228;2022-11-15T16:49:07;12.70;1.00
1536;DHT22;761;50.074;8.228;2022-11-15T16:51:41;12.50;1.00
1536;DHT22;761;50.074;8.228;2022-11-15T16:54:14;12.40;1.00
1536;DHT22;761;50.074;8.228;2022-11-15T16:59:18;11.60;1.00
1536;DHT22;761;50.074;8.228;2022-11-15T17:17:05;11.50;1.00
1536;DHT22;761;50.074;8.228;2022-11-15T17:19:39;11.50;1.00
1536;DHT22;761;50.074;8.228;2022-11-15T17:24:59;11.50;1.00
1536;DHT22;761;50.074;8.228;2022-11-15T17:30:05;11.40;1.00
1536;DHT22;761;50.074;8.228;2022-11-15T17:35:10;11.20;1.00
1536;DHT22;761;50.074;8.228;2022-11-15T17:37:44;11.20;1.00
1536;DHT22;761;50.074;8.228;2022-11-15T17:42:49;11.20;1.00
1536;DHT22;761;50.074;8.228;2022-11-15T17:47:53;11.30;1.00
1536;DHT22;761;50.074;8.228;2022-11-15T17:50:21;11.40;1.00
1536;DHT22;761;50.074;8.228;2022-11-15T18:03:14;11.50;1.00
1536;DHT22;761;50.074;8.228;2022-11-15T18:05:44;11.50;1.00
1536;DHT22;761;50.074;8.228;2022-11-15T18:13:17;11.40;1.00
1536;DHT22;761;50.074;8.228;2022-11-15T18:21:01;11.40;1.00
1536;DHT22;761;50.074;8.228;2022-11-15T18:26:04;11.70;1.00
1536;DHT22;761;50.074;8.228;2022-11-15T18:28:34;11.80;1.00
1536;DHT22;761;50.074;8.228;2022-11-15T18:31:15;11.80;1.00
1536;DHT22;761;50.074;8.228;2022-11-15T18:36:22;11.80;1.00
1536;DHT22;761;50.074;8.228;2022-11-15T18:41:31;11.60;1.00
1536;DHT22;761;50.074;8.228;2022-11-15T18:44:03;11.60;1.00
1536;DHT22;761;50.074;8.228;2022-11-15T18:46:35;11.50;1.00
1536;DHT22;761;50.074;8.228;2022-11-15T18:49:09;11.50;1.00
1536;DHT22;761;50.074;8.228;2022-11-15T18:51:39;11.50;1.00
1536;DHT22;761;50.074;8.228;2022-11-15T18:54:13;11.50;1.00
1536;DHT22;761;50.074;8.228;2022-11-15T18:56:43;11.60;1.00
1536;DHT22;761;50.074;8.228;2022-11-15T18:59:13;11.60;1.00
1536;DHT22;761;50.074;8.228;2022-11-15T19:01:43;11.60;1.00
1536;DHT22;761;50.074;8.228;2022-11-15T19:04:20;11.60;1.00
1536;DHT22;761;50.074;8.228;2022-11-15T19:22:12;11.50;1.00
1536;DHT22;761;50.074;8.228;2022-11-15T19:24:41;11.40;1.00
1536;DHT22;761;50.074;8.228;2022-11-15T19:27:12;11.40;1.00
1536;DHT22;761;50.074;8.228;2022-11-15T19:37:16;11.70;1.00
1536;DHT22;761;50.074;8.228;2022-11-15T19:39:46;11.40;1.00
1536;DHT22;761;50.074;8.228;2022-11-15T19:42:16;11.60;1.00
1536;DHT22;761;50.074;8.228;2022-11-15T19:44:44;11.60;1.00
1536;DHT22;761;50.074;8.228;2022-11-15T19:47:13;11.60;1.00
1536;DHT22;761;50.074;8.228;2022-11-15T19:49:41;11.60;1.00
1536;DHT22;761;50.074;8.228;2022-11-15T19:52:12;11.60;1.00
1536;DHT22;761;50.074;8.228;2022-11-15T19:54:42;11.50;1.00
1536;DHT22;761;50.074;8.228;2022-11-15T19:57:11;11.50;1.00
1536;DHT22;761;50.074;8.228;2022-11-15T19:59:42;11.50;1.00
1536;DHT22;761;50.074;8.228;2022-11-15T20:02:10;11.40;1.00
1536;DHT22;761;50.074;8.228;2022-11-15T20:07:08;11.40;1.00
1536;DHT22;761;50.074;8.228;2022-11-15T20:09:39;11.40;1.00
1536;DHT22;761;50.074;8.228;2022-11-15T20:12:08;11.30;1.00
1536;DHT22;761;50.074;8.228;2022-11-15T20:17:07;11.30;1.00
1536;DHT22;761;50.074;8.228;2022-11-15T20:19:38;11.20;1.00
1536;DHT22;761;50.074;8.228;2022-11-15T20:24:36;11.30;1.00
1536;DHT22;761;50.074;8.228;2022-11-15T20:27:04;11.20;1.00
1536;DHT22;761;50.074;8.228;2022-11-15T20:29:34;11.30;1.00
1536;DHT22;761;50.074;8.228;2022-11-15T20:34:41;11.30;1.00
1536;DHT22;761;50.074;8.228;2022-11-15T20:37:10;11.30;1.00
1536;DHT22;761;50.074;8.228;2022-11-15T20:39:39;11.30;1.00
1536;DHT22;761;50.074;8.228;2022-11-15T20:42:08;11.40;1.00
1536;DHT22;761;50.074;8.228;2022-11-15T20:44:36;11.40;1.00
1536;DHT22;761;50.074;8.228;2022-11-15T20:47:05;11.30;1.00
1536;DHT22;761;50.074;8.228;2022-11-15T20:49:35;11.30;1.00
1536;DHT22;761;50.074;8.228;2022-11-15T20:52:03;11.30;1.00
1536;DHT22;761;50.074;8.228;2022-11-15T20:54:32;11.20;1.00
1536;DHT22;761;50.074;8.228;2022-11-15T20:57:00;11.20;1.00
1536;DHT22;761;50.074;8.228;2022-11-15T20:59:29;11.30;1.00
1536;DHT22;761;50.074;8.228;2022-11-15T21:02:00;11.30;1.00
1536;DHT22;761;50.074;8.228;2022-11-15T21:04:29;11.30;1.00
1536;DHT22;761;50.074;8.228;2022-11-15T21:07:01;11.30;1.00
1536;DHT22;761;50.074;8.228;2022-11-15T21:09:30;11.30;1.00
1536;DHT22;761;50.074;8.228;2022-11-15T21:12:17;11.40;1.00
1536;DHT22;761;50.074;8.228;2022-11-15T21:14:45;11.30;1.00
1536;DHT22;761;50.074;8.228;2022-11-15T21:17:15;11.10;1.00
1536;DHT22;761;50.074;8.228;2022-11-15T21:19:44;11.20;1.00
1536;DHT22;761;50.074;8.228;2022-11-15T21:22:14;11.30;1.00
1536;DHT22;761;50.074;8.228;2022-11-15T21:24:43;11.20;1.00
1536;DHT22;761;50.074;8.228;2022-11-15T21:29:41;11.20;1.00
1536;DHT22;761;50.074;8.228;2022-11-15T21:32:11;11.20;1.00
1536;DHT22;761;50.074;8.228;2022-11-15T21:34:40;11.20;1.00
1536;DHT22;761;50.074;8.228;2022-11-15T21:37:09;11.20;1.00
1536;DHT22;761;50.074;8.228;2022-11-15T21:39:40;11.20;1.00
1536;DHT22;761;50.074;8.228;2022-11-15T21:42:09;11.10;1.00
1536;DHT22;761;50.074;8.228;2022-11-15T21:44:37;11.10;1.00
1536;DHT22;761;50.074;8.228;2022-11-15T21:47:06;11.10;1.00
1536;DHT22;761;50.074;8.228;2022-11-15T21:49:37;11.10;1.00
1536;DHT22;761;50.074;8.228;2022-11-15T21:52:06;11.10;1.00
1536;DHT22;761;50.074;8.228;2022-11-15T21:54:35;11.10;1.00
1536;DHT22;761;50.074;8.228;2022-11-15T21:57:13;11.20;1.00
1536;DHT22;761;50.074;8.228;2022-11-15T21:59:43;11.20;1.00
1536;DHT22;761;50.074;8.228;2022-11-15T22:02:26;11.10;1.00
1536;DHT22;761;50.074;8.228;2022-11-15T22:04:59;11.10;1.00
1536;DHT22;761;50.074;8.228;2022-11-15T22:07:29;11.10;1.00